createdAt,value
2023-02-25T00:01:34.324Z,99989.91
2023-02-25T00:04:03.879Z,99997.00
2023-02-25T00:06:31.574Z,99994.94
2023-02-25T00:08:59.682Z,99991.91
2023-02-25T00:11:28.300Z,99997.16
2023-02-25T00:13:56.353Z,99991.28
2023-02-25T00:16:26.125Z,100001.41
2023-02-25T00:18:56.968Z,99992.69
2023-02-25T00:21:29.824Z,99999.38
2023-02-25T00:24:04.410Z,100001.41
2023-02-25T00:26:42.451Z,99995.31
2023-02-25T00:29:10.197Z,99987.22
2023-02-25T00:31:38.064Z,99998.94
2023-02-25T00:34:05.875Z,99999.75
2023-02-25T00:36:34.945Z,100007.47
2023-02-25T00:39:02.633Z,100010.28
2023-02-25T00:41:31.737Z,100005.84
2023-02-25T00:44:01.364Z,100017.38
2023-02-25T00:46:30.897Z,100015.56
2023-02-25T00:48:59.719Z,100014.75
2023-02-25T00:51:29.811Z,100020.22
2023-02-25T00:53:59.766Z,100003.81
2023-02-25T00:56:27.977Z,100012.06
2023-02-25T00:58:55.692Z,100002.97
2023-02-25T01:01:26.156Z,100005.00
2023-02-25T01:03:56.161Z,100002.53
2023-02-25T01:06:24.610Z,100003.97
2023-02-25T01:11:45.412Z,100012.47
2023-02-25T01:14:15.911Z,100009.25
2023-02-25T01:16:45.097Z,100007.63
2023-02-25T01:19:16.077Z,100012.88
2023-02-25T01:21:45.553Z,100014.72
2023-02-25T01:24:14.962Z,100010.84
2023-02-25T01:26:47.233Z,100012.69
2023-02-25T01:29:18.062Z,100006.41
2023-02-25T01:31:46.528Z,100005.59
2023-02-25T01:34:16.788Z,100008.22
2023-02-25T01:36:45.206Z,100006.22
2023-02-25T01:39:14.032Z,100014.13
2023-02-25T01:41:42.609Z,100020.00
2023-02-25T01:44:14.243Z,100012.09
2023-02-25T01:46:44.014Z,100014.72
2023-02-25T01:49:16.033Z,100010.66
2023-02-25T01:51:47.008Z,100008.63
2023-02-25T01:54:15.588Z,100010.03
2023-02-25T01:56:48.750Z,100012.03
2023-02-25T01:59:21.027Z,100000.50
2023-02-25T02:01:49.358Z,100000.28
2023-02-25T02:04:19.175Z,100019.31
2023-02-25T02:06:51.233Z,100010.59
2023-02-25T02:09:21.245Z,100017.84
2023-02-25T02:11:48.965Z,100022.31
2023-02-25T02:14:22.101Z,100015.22
2023-02-25T02:17:16.752Z,100022.13
2023-02-25T02:20:02.142Z,100025.75
2023-02-25T02:22:37.303Z,100025.75
2023-02-25T02:25:34.685Z,100025.16
2023-02-25T02:28:21.719Z,100037.31
2023-02-25T02:31:23.777Z,100037.69
2023-02-25T02:34:00.548Z,100033.44
2023-02-25T02:36:37.205Z,100029.97
2023-02-25T02:39:14.958Z,100031.59
2023-02-25T02:41:48.751Z,100037.69
2023-02-25T02:44:20.312Z,100027.16
2023-02-25T02:46:53.636Z,100047.84
2023-02-25T02:49:26.859Z,100031.41
2023-02-25T02:51:59.175Z,100031.41
2023-02-25T02:54:32.898Z,100025.75
2023-02-25T02:57:02.478Z,100019.88
2023-02-25T02:59:34.293Z,100021.94
2023-02-25T03:02:11.128Z,100026.41
2023-02-25T03:04:42.702Z,100021.94
2023-02-25T03:07:14.733Z,100020.72
2023-02-25T03:09:48.165Z,100024.97
2023-02-25T03:12:16.947Z,100034.91
2023-02-25T03:14:44.860Z,100026.63
2023-02-25T03:17:18.495Z,100034.31
2023-02-25T03:19:51.957Z,100039.38
2023-02-25T03:22:28.256Z,100038.78
2023-02-25T03:25:00.716Z,100040.16
2023-02-25T03:27:34.932Z,100034.09
2023-02-25T03:30:07.659Z,100027.00
2023-02-25T03:32:39.628Z,100042.19
2023-02-25T03:35:10.354Z,100035.28
2023-02-25T03:37:41.713Z,100036.50
2023-02-25T03:40:14.330Z,100040.94
2023-02-25T03:42:49.184Z,100032.84
2023-02-25T03:45:17.648Z,100030.41
2023-02-25T03:47:46.989Z,100024.94
2023-02-25T03:50:21.324Z,100022.13
2023-02-25T03:52:49.044Z,100016.25
2023-02-25T03:55:18.405Z,100021.94
2023-02-25T03:57:49.751Z,100024.38
2023-02-25T04:00:22.735Z,100019.91
2023-02-25T04:02:53.018Z,100027.59
2023-02-25T04:05:22.154Z,100024.38
2023-02-25T04:07:50.072Z,100026.78
2023-02-25T04:10:19.388Z,100027.81
2023-02-25T04:12:47.110Z,100028.63
2023-02-25T04:15:15.163Z,100033.88
2023-02-25T04:17:43.415Z,100044.22
2023-02-25T04:20:13.776Z,100031.88
2023-02-25T04:22:41.627Z,100031.25
2023-02-25T04:25:10.572Z,100037.31
2023-02-25T04:27:38.231Z,100041.19
2023-02-25T04:30:06.828Z,100043.59
2023-02-25T04:32:35.122Z,100043.00
2023-02-25T04:35:03.486Z,100043.81
2023-02-25T04:37:32.875Z,100048.25
2023-02-25T04:40:01.025Z,100051.88
2023-02-25T04:42:28.680Z,100047.47
2023-02-25T04:44:56.343Z,100042.38
2023-02-25T04:47:24.402Z,100051.72
2023-02-25T04:49:52.066Z,100053.09
2023-02-25T04:52:20.059Z,100058.16
2023-02-25T04:54:49.688Z,100055.94
2023-02-25T04:57:17.180Z,100053.69
2023-02-25T04:59:47.628Z,100047.81
2023-02-25T05:02:16.626Z,100061.19
2023-02-25T05:04:44.664Z,100064.81
2023-02-25T05:07:12.426Z,100056.69
2023-02-25T05:09:40.592Z,100061.94
2023-02-25T05:12:09.687Z,100057.13
2023-02-25T05:14:38.295Z,100051.84
2023-02-25T05:17:06.424Z,100051.84
2023-02-25T05:19:34.307Z,100046.38
2023-02-25T05:22:01.992Z,100042.13
2023-02-25T05:24:29.733Z,100049.03
2023-02-25T05:26:57.429Z,100041.75
2023-02-25T05:29:26.502Z,100043.97
2023-02-25T05:31:55.748Z,100052.66
2023-02-25T05:34:23.734Z,100056.75
2023-02-25T05:36:51.440Z,100055.72
2023-02-25T05:39:19.702Z,100053.69
2023-02-25T05:41:47.372Z,100058.00
2023-02-25T05:44:15.022Z,100050.25
2023-02-25T05:46:44.516Z,100055.97
2023-02-25T05:49:12.223Z,100055.97
2023-02-25T05:51:39.978Z,100060.22
2023-02-25T05:54:08.235Z,100054.75
2023-02-25T05:56:35.888Z,100051.94
2023-02-25T05:59:03.538Z,100060.44
2023-02-25T06:01:32.227Z,100045.28
2023-02-25T06:04:01.317Z,100054.78
2023-02-25T06:06:31.585Z,100055.59
2023-02-25T06:09:00.119Z,100056.63
2023-02-25T06:11:31.576Z,100051.16
2023-02-25T06:14:01.697Z,100063.50
2023-02-25T06:16:33.008Z,100062.88
2023-02-25T06:19:03.671Z,100061.69
2023-02-25T06:21:32.057Z,100077.47
2023-02-25T06:23:59.838Z,100077.84
2023-02-25T06:26:28.451Z,100081.91
2023-02-25T06:28:56.634Z,100080.25
2023-02-25T06:31:25.601Z,100081.47
2023-02-25T06:33:55.457Z,100077.22
2023-02-25T06:36:25.018Z,100088.38
2023-02-25T06:38:52.909Z,100099.09
2023-02-25T06:41:23.110Z,100104.97
2023-02-25T06:43:52.519Z,100118.78
2023-02-25T06:46:27.343Z,100112.25
2023-02-25T06:48:55.645Z,100119.97
2023-02-25T06:51:25.792Z,100125.22
2023-02-25T06:53:53.909Z,100118.34
2023-02-25T06:56:22.486Z,100119.34
2023-02-25T06:58:52.499Z,100118.53
2023-02-25T07:01:21.143Z,100122.16
2023-02-25T07:03:49.014Z,100124.63
2023-02-25T07:06:17.300Z,100130.06
2023-02-25T07:08:47.244Z,100132.53
2023-02-25T07:11:26.990Z,100113.00
2023-02-25T07:13:55.121Z,100122.41
2023-02-25T07:16:23.301Z,100117.13
2023-02-25T07:18:51.872Z,100113.50
2023-02-25T07:21:20.641Z,100119.38
2023-02-25T07:23:50.334Z,100115.53
2023-02-25T07:26:18.319Z,100123.44
2023-02-25T07:28:48.753Z,100125.69
2023-02-25T07:31:19.411Z,100112.66
2023-02-25T07:33:47.269Z,100128.13
2023-02-25T07:36:16.641Z,100125.91
2023-02-25T07:38:44.639Z,100135.84
2023-02-25T07:41:15.881Z,100136.91
2023-02-25T07:43:44.207Z,100134.88
2023-02-25T07:46:13.191Z,100138.53
2023-02-25T07:48:40.982Z,100147.66
2023-02-25T07:51:11.307Z,100144.81
2023-02-25T07:53:39.760Z,100149.28
2023-02-25T07:56:08.512Z,100151.53
2023-02-25T07:58:38.702Z,100154.19
2023-02-25T08:01:09.024Z,100160.25
2023-02-25T08:03:36.868Z,100163.06
2023-02-25T08:06:08.264Z,100154.19
2023-02-25T08:08:36.443Z,100159.63
2023-02-25T08:11:07.155Z,100159.03
2023-02-25T08:13:35.476Z,100161.50
2023-02-25T08:16:07.185Z,100157.88
2023-02-25T08:18:34.997Z,100171.28
2023-02-25T08:21:03.434Z,100165.88
2023-02-25T08:23:31.664Z,100166.91
2023-02-25T08:25:59.744Z,100168.13
2023-02-25T08:28:31.829Z,100159.25
2023-02-25T08:31:01.827Z,100167.78
2023-02-25T08:33:32.091Z,100164.56
2023-02-25T08:36:09.531Z,100170.28
2023-02-25T08:38:38.528Z,100164.22
2023-02-25T08:41:06.897Z,100179.44
2023-02-25T08:43:34.841Z,100171.75
2023-02-25T08:46:03.392Z,100170.94
2023-02-25T08:48:32.414Z,100183.31
2023-02-25T08:51:04.305Z,100161.78
2023-02-25T08:53:31.981Z,100168.91
2023-02-25T08:56:03.326Z,100168.31
2023-02-25T08:58:31.576Z,100169.94
2023-02-25T09:00:59.426Z,100165.47
2023-02-25T09:03:27.129Z,100181.13
2023-02-25T09:05:57.753Z,100167.31
2023-02-25T09:08:25.393Z,100178.09
2023-02-25T09:10:53.046Z,100169.31
2023-02-25T09:13:21.315Z,100174.03
2023-02-25T09:15:57.149Z,100165.53
2023-02-25T09:18:25.462Z,100168.13
2023-02-25T09:20:53.328Z,100176.06
2023-02-25T09:23:22.386Z,100171.16
2023-02-25T09:25:50.912Z,100174.81
2023-02-25T09:28:18.648Z,100179.28
2023-02-25T09:30:46.847Z,100174.22
2023-02-25T09:33:15.470Z,100176.44
2023-02-25T09:35:43.134Z,100164.06
2023-02-25T09:38:11.345Z,100174.59
2023-02-25T09:40:42.258Z,100174.00
2023-02-25T09:43:21.012Z,100170.34
2023-02-25T09:45:50.590Z,100188.59
2023-02-25T09:48:25.767Z,100178.63
2023-02-25T09:50:58.610Z,100173.94
2023-02-25T09:53:32.840Z,100175.13
2023-02-25T09:56:03.780Z,100184.28
2023-02-25T09:58:35.034Z,100189.00
2023-02-25T10:01:08.638Z,100189.41
2023-02-25T10:03:47.987Z,100192.06
2023-02-25T10:06:22.504Z,100199.19
2023-02-25T10:09:02.838Z,100188.00
2023-02-25T10:11:44.237Z,100194.91
2023-02-25T10:14:25.387Z,100198.19
2023-02-25T10:17:04.429Z,100199.19
2023-02-25T10:19:52.971Z,100208.94
2023-02-25T10:22:30.410Z,100218.69
2023-02-25T10:25:02.112Z,100219.50
2023-02-25T10:27:35.297Z,100215.06
2023-02-25T10:30:07.851Z,100215.41
2023-02-25T10:32:38.133Z,100211.03
2023-02-25T10:35:17.044Z,100212.03
2023-02-25T10:37:45.357Z,100227.28
2023-02-25T10:40:17.408Z,100222.44
2023-02-25T10:42:51.027Z,100227.72
2023-02-25T10:45:23.155Z,100219.56
2023-02-25T10:47:57.171Z,100220.41
2023-02-25T10:50:42.793Z,100214.50
2023-02-25T10:53:16.416Z,100212.66
2023-02-25T10:55:51.759Z,100211.03
2023-02-25T10:58:32.137Z,100211.06
2023-02-25T11:01:02.412Z,100217.16
2023-02-25T11:03:33.102Z,100224.03
2023-02-25T11:06:20.645Z,100208.19
2023-02-25T11:08:49.926Z,100229.28
2023-02-25T11:11:22.178Z,100239.00
2023-02-25T11:14:02.057Z,100228.00
2023-02-25T11:16:32.084Z,100238.66
2023-02-25T11:19:02.808Z,100232.41
2023-02-25T11:21:34.781Z,100236.88
2023-02-25T11:24:05.695Z,100229.75
2023-02-25T11:26:36.006Z,100218.81
2023-02-25T11:29:13.948Z,100210.50
2023-02-25T11:32:01.485Z,100208.03
2023-02-25T11:34:31.793Z,100205.44
2023-02-25T11:37:27.950Z,100201.97
2023-02-25T11:39:57.983Z,100197.13
2023-02-25T11:42:27.734Z,100191.44
2023-02-25T11:45:02.428Z,100196.72
2023-02-25T11:47:32.709Z,100194.72
2023-02-25T11:50:15.091Z,100195.41
2023-02-25T11:52:47.653Z,100194.19
2023-02-25T11:55:26.630Z,100198.84
2023-02-25T11:58:06.276Z,100195.44
2023-02-25T12:00:45.433Z,100187.09
2023-02-25T12:03:43.509Z,100184.44
2023-02-25T12:06:23.381Z,100185.88
2023-02-25T12:09:22.701Z,100192.78
2023-02-25T12:12:13.246Z,100208.41
2023-02-25T12:15:06.139Z,100215.06
2023-02-25T12:18:07.027Z,100215.03
2023-02-25T12:20:59.859Z,100215.41
2023-02-25T12:24:07.461Z,100226.78
2023-02-25T12:26:54.988Z,100227.38
2023-02-25T12:29:42.502Z,100224.72
2023-02-25T12:32:37.182Z,100223.47
2023-02-25T12:35:39.054Z,100227.50
2023-02-25T12:38:43.196Z,100224.41
2023-02-25T12:41:27.478Z,100218.94
2023-02-25T12:44:06.974Z,100210.94
2023-02-25T12:46:46.052Z,100208.72
2023-02-25T12:49:51.287Z,100208.28
2023-02-25T12:52:35.731Z,100204.69
2023-02-25T12:55:24.694Z,100205.06
2023-02-25T12:58:09.504Z,100202.22
2023-02-25T13:01:01.363Z,100206.13
2023-02-25T13:03:41.685Z,100192.19
2023-02-25T13:06:44.761Z,100196.22
2023-02-25T13:09:40.128Z,100185.31
2023-02-25T13:12:26.418Z,100192.66
2023-02-25T13:15:05.770Z,100198.34
2023-02-25T13:17:57.433Z,100191.06
2023-02-25T13:21:01.770Z,100183.75
2023-02-25T13:23:47.945Z,100179.78
2023-02-25T13:26:47.116Z,100164.34
2023-02-25T13:29:40.175Z,100172.09
2023-02-25T13:32:21.571Z,100191.75
2023-02-25T13:35:06.821Z,100197.16
2023-02-25T13:37:48.563Z,100195.09
2023-02-25T13:40:32.255Z,100197.19
2023-02-25T13:43:16.100Z,100199.69
2023-02-25T13:45:56.264Z,100204.34
2023-02-25T13:48:40.385Z,100218.34
2023-02-25T13:51:42.843Z,100210.63
2023-02-25T13:54:31.508Z,100215.53
2023-02-25T13:57:27.724Z,100212.28
2023-02-25T14:00:38.770Z,100212.47
2023-02-25T14:03:23.512Z,100229.28
2023-02-25T14:06:08.954Z,100220.34
2023-02-25T14:08:59.753Z,100231.31
2023-02-25T14:11:43.517Z,100219.16
2023-02-25T14:14:28.701Z,100216.50
2023-02-25T14:17:19.214Z,100234.97
2023-02-25T14:20:02.497Z,100221.59
2023-02-25T14:22:38.403Z,100234.31
2023-02-25T14:25:21.602Z,100233.97
2023-02-25T14:27:58.575Z,100232.78
2023-02-25T14:30:37.065Z,100231.94
2023-02-25T14:33:33.113Z,100237.75
2023-02-25T14:36:13.472Z,100231.25
2023-02-25T14:39:02.199Z,100229.84
2023-02-25T14:41:43.282Z,100242.91
2023-02-25T14:44:16.360Z,100243.03
2023-02-25T14:46:49.407Z,100240.94
2023-02-25T14:49:26.735Z,100243.84
2023-02-25T14:52:24.339Z,100245.88
2023-02-25T14:55:25.328Z,100261.50
2023-02-25T14:58:31.531Z,100269.47
2023-02-25T15:01:27.990Z,100265.25
2023-02-25T15:04:19.373Z,100268.47
2023-02-25T15:07:00.381Z,100277.69
2023-02-25T15:10:09.580Z,100279.47
2023-02-25T15:13:01.227Z,100284.25
2023-02-25T15:15:55.161Z,100289.06
2023-02-25T15:18:53.751Z,100286.88
2023-02-25T15:21:37.285Z,100301.13
2023-02-25T15:24:11.500Z,100299.59
2023-02-25T15:26:44.193Z,100304.03
2023-02-25T15:29:48.233Z,100303.53
2023-02-25T15:32:24.288Z,100305.66
2023-02-25T15:34:57.959Z,100308.88
2023-02-25T15:37:32.300Z,100306.84
2023-02-25T15:40:04.440Z,100318.56
2023-02-25T15:42:46.758Z,100315.53
2023-02-25T15:45:38.126Z,100321.81
2023-02-25T15:48:30.775Z,100319.91
2023-02-25T15:51:00.532Z,100319.16
2023-02-25T15:53:40.493Z,100325.22
2023-02-25T15:56:41.092Z,100326.09
2023-02-25T15:59:08.812Z,100327.16
2023-02-25T16:01:42.777Z,100328.78
2023-02-25T16:04:56.792Z,100337.44
2023-02-25T16:07:32.334Z,100332.50
2023-02-25T16:10:03.917Z,100341.50
2023-02-25T16:12:33.062Z,100341.06
2023-02-25T16:15:01.459Z,100338.19
2023-02-25T16:17:33.959Z,100338.97
2023-02-25T16:20:17.956Z,100336.28
2023-02-25T16:22:48.392Z,100340.66
2023-02-25T16:25:19.905Z,100351.00
2023-02-25T16:27:59.801Z,100353.16
2023-02-25T16:30:37.203Z,100355.94
2023-02-25T16:33:13.818Z,100360.09
2023-02-25T16:35:50.367Z,100360.59
2023-02-25T16:38:28.801Z,100362.38
2023-02-25T16:40:59.820Z,100368.06
2023-02-25T16:43:33.554Z,100371.16
2023-02-25T16:46:03.830Z,100374.00
2023-02-25T16:48:35.179Z,100383.69
2023-02-25T16:51:11.374Z,100390.31
2023-02-25T16:53:44.788Z,100387.31
2023-02-25T16:56:20.056Z,100403.88
2023-02-25T16:59:15.735Z,100397.28
2023-02-25T17:01:48.776Z,100410.91
2023-02-25T17:04:19.878Z,100407.31
2023-02-25T17:07:07.808Z,100408.81
2023-02-25T17:09:36.185Z,100419.09
2023-02-25T17:12:04.872Z,100418.53
2023-02-25T17:14:33.987Z,100423.88
2023-02-25T17:17:02.112Z,100425.81
2023-02-25T17:19:30.097Z,100432.91
2023-02-25T17:22:00.841Z,100435.91
2023-02-25T17:24:32.414Z,100438.53
2023-02-25T17:27:01.701Z,100439.31
2023-02-25T17:29:37.086Z,100440.94
2023-02-25T17:32:14.369Z,100448.63
2023-02-25T17:34:43.375Z,100447.06
2023-02-25T17:37:13.529Z,100441.41
2023-02-25T17:39:44.233Z,100447.75
2023-02-25T17:42:28.830Z,100459.75
2023-02-25T17:44:58.828Z,100462.19
2023-02-25T17:47:28.875Z,100462.81
2023-02-25T17:49:57.659Z,100467.19
2023-02-25T17:52:28.397Z,100479.25
2023-02-25T17:54:59.529Z,100483.25
2023-02-25T17:57:30.462Z,100484.88
2023-02-25T18:00:04.231Z,100481.59
2023-02-25T18:02:38.610Z,100489.59
2023-02-25T18:05:26.972Z,100496.31
2023-02-25T18:08:19.284Z,100499.75
2023-02-25T18:10:59.004Z,100509.22
2023-02-25T18:13:34.236Z,100509.06
2023-02-25T18:16:31.889Z,100511.41
2023-02-25T18:19:01.666Z,100513.31
2023-02-25T18:21:29.809Z,100515.13
2023-02-25T18:23:58.184Z,100520.13
2023-02-25T18:26:27.475Z,100523.66
2023-02-25T18:28:58.450Z,100527.00
2023-02-25T18:31:27.944Z,100539.81
2023-02-25T18:33:55.607Z,100543.16
2023-02-25T18:36:26.551Z,100540.25
2023-02-25T18:38:56.848Z,100542.06
2023-02-25T18:41:24.568Z,100557.56
2023-02-25T18:43:54.510Z,100557.22
2023-02-25T18:46:23.023Z,100555.09
2023-02-25T18:48:52.138Z,100555.44
2023-02-25T18:51:19.857Z,100557.56
2023-02-25T18:53:48.328Z,100565.63
2023-02-25T18:56:17.826Z,100568.94
2023-02-25T18:58:45.646Z,100570.03
2023-02-25T19:01:21.760Z,100577.44
2023-02-25T19:03:49.584Z,100579.94
2023-02-25T19:06:18.623Z,100583.53
2023-02-25T19:08:46.873Z,100586.16
2023-02-25T19:11:19.077Z,100593.72
2023-02-25T19:13:47.339Z,100592.72
2023-02-25T19:16:16.759Z,100589.97
2023-02-25T19:18:44.802Z,100602.31
2023-02-25T19:21:15.490Z,100601.41
2023-02-25T19:23:44.623Z,100602.59
2023-02-25T19:26:12.873Z,100604.94
2023-02-25T19:28:40.856Z,100610.34
2023-02-25T19:31:09.916Z,100616.09
2023-02-25T19:33:37.648Z,100619.38
2023-02-25T19:36:08.980Z,100622.25
2023-02-25T19:38:36.648Z,100626.84
2023-02-25T19:41:06.722Z,100622.88
2023-02-25T19:43:35.352Z,100626.03
2023-02-25T19:46:04.996Z,100623.75
2023-02-25T19:48:32.503Z,100624.88
2023-02-25T19:51:00.629Z,100633.91
2023-02-25T19:53:28.385Z,100638.59
2023-02-25T19:55:57.379Z,100645.88
2023-02-25T19:58:26.924Z,100640.63
2023-02-25T20:00:55.514Z,100646.75
2023-02-25T20:03:23.290Z,100653.38
2023-02-25T20:05:52.677Z,100659.75
2023-02-25T20:08:20.640Z,100661.09
2023-02-25T20:10:48.266Z,100667.41
2023-02-25T20:13:16.349Z,100671.47
2023-02-25T20:15:45.340Z,100677.22
2023-02-25T20:18:12.983Z,100678.25
2023-02-25T20:20:43.065Z,100681.81
2023-02-25T20:23:11.549Z,100688.06
2023-02-25T20:25:39.236Z,100681.50
2023-02-25T20:28:07.348Z,100690.06
2023-02-25T20:30:35.087Z,100694.00
2023-02-25T20:33:04.655Z,100694.84
2023-02-25T20:35:33.671Z,100705.53
2023-02-25T20:38:16.736Z,100708.16
2023-02-25T20:40:45.069Z,100711.28
2023-02-25T20:43:13.021Z,100720.50
2023-02-25T20:45:41.138Z,100728.03
2023-02-25T20:48:21.985Z,100722.28
2023-02-25T20:50:50.022Z,100726.94
2023-02-25T20:53:18.218Z,100731.88
2023-02-25T20:55:46.396Z,100734.31
2023-02-25T20:58:14.071Z,100731.38
2023-02-25T21:00:42.014Z,100741.38
2023-02-25T21:03:11.164Z,100738.94
2023-02-25T21:05:38.845Z,100740.56
2023-02-25T21:08:07.089Z,100742.72
2023-02-25T21:10:34.841Z,100748.66
2023-02-25T21:13:02.559Z,100753.91
2023-02-25T21:15:30.349Z,100754.22
2023-02-25T21:17:58.525Z,100751.91
2023-02-25T21:20:27.673Z,100764.72
2023-02-25T21:22:55.347Z,100768.34
2023-02-25T21:25:23.035Z,100765.38
2023-02-25T21:27:50.746Z,100771.28
2023-02-25T21:30:19.063Z,100765.88
2023-02-25T21:32:46.921Z,100767.03
2023-02-25T21:35:14.672Z,100769.66
2023-02-25T21:37:43.744Z,100769.31
2023-02-25T21:40:13.547Z,100770.94
2023-02-25T21:42:41.216Z,100768.00
2023-02-25T21:45:10.905Z,100775.22
2023-02-25T21:47:38.586Z,100771.31
2023-02-25T21:50:07.427Z,100769.97
2023-02-25T21:52:35.121Z,100771.94
2023-02-25T21:55:04.684Z,100768.66
2023-02-25T21:57:32.389Z,100767.66
2023-02-25T22:00:00.442Z,100771.13
2023-02-25T22:02:29.149Z,100776.72
2023-02-25T22:04:57.390Z,100777.84
2023-02-25T22:07:25.153Z,100780.47
2023-02-25T22:09:53.104Z,100784.25
2023-02-25T22:12:22.125Z,100784.25
2023-02-25T22:14:49.764Z,100786.72
2023-02-25T22:17:17.961Z,100784.25
2023-02-25T22:19:45.682Z,100786.88
2023-02-25T22:22:14.945Z,100786.72
2023-02-25T22:24:43.109Z,100788.69
2023-02-25T22:27:10.751Z,100786.41
2023-02-25T22:29:39.762Z,100792.47
2023-02-25T22:32:08.183Z,100789.97
2023-02-25T22:34:35.924Z,100786.22
2023-02-25T22:37:03.601Z,100791.66
2023-02-25T22:39:31.710Z,100789.03
2023-02-25T22:41:59.507Z,100793.28
2023-02-25T22:44:27.254Z,100794.91
2023-02-25T22:46:56.790Z,100793.44
2023-02-25T22:49:24.390Z,100797.06
2023-02-25T22:51:52.073Z,100795.72
2023-02-25T22:54:21.598Z,100798.03
2023-02-25T22:56:50.609Z,100802.78
2023-02-25T22:59:18.526Z,100802.78
2023-02-25T23:01:46.879Z,100807.38
2023-02-25T23:04:16.254Z,100808.34
2023-02-25T23:06:45.426Z,100819.34
2023-02-25T23:09:14.448Z,100812.47
2023-02-25T23:11:43.370Z,100808.50
2023-02-25T23:14:11.120Z,100815.22
2023-02-25T23:16:41.287Z,100819.47
2023-02-25T23:19:10.893Z,100809.28
2023-02-25T23:21:40.065Z,100820.47
2023-02-25T23:24:09.974Z,100820.47
2023-02-25T23:26:40.415Z,100827.53
2023-02-25T23:29:09.828Z,100831.94
2023-02-25T23:31:39.889Z,100823.09
2023-02-25T23:34:09.763Z,100828.34
2023-02-25T23:36:37.698Z,100828.69
2023-02-25T23:39:08.842Z,100830.31
2023-02-25T23:41:38.202Z,100832.28
2023-02-25T23:44:08.717Z,100836.03
2023-02-25T23:46:37.182Z,100818.16
2023-02-25T23:49:07.764Z,100838.16
2023-02-25T23:51:36.767Z,100842.91
2023-02-25T23:54:08.088Z,100832.72
2023-02-25T23:56:36.845Z,100834.84
2023-02-25T23:59:04.571Z,100835.00
